sensor_id;sensor_type;location;lat;lon;timestamp;P1;durP1;ratioP1;P2;durP2;ratioP2
2544;SDS011;36212;48.838;9.142;2023-07-20T00:00:30;3.67;;;2.70;;
2544;SDS011;36212;48.838;9.142;2023-07-20T00:03:12;2.80;;;2.60;;
2544;SDS011;36212;48.838;9.142;2023-07-20T00:05:55;2.30;;;2.10;;
2544;SDS011;36212;48.838;9.142;2023-07-20T00:08:27;3.07;;;2.87;;
2544;SDS011;36212;48.838;9.142;2023-07-20T00:10:59;4.50;;;2.73;;
2544;SDS011;36212;48.838;9.142;2023-07-20T00:13:31;2.83;;;2.63;;
2544;SDS011;36212;48.838;9.142;2023-07-20T00:16:03;2.60;;;2.40;;
2544;SDS011;36212;48.838;9.142;2023-07-20T00:18:36;6.10;;;3.40;;
2544;SDS011;36212;48.838;9.142;2023-07-20T00:21:08;5.53;;;2.73;;
2544;SDS011;36212;48.838;9.142;2023-07-20T00:23:41;2.50;;;2.30;;
2544;SDS011;36212;48.838;9.142;2023-07-20T00:26:13;2.90;;;2.67;;
2544;SDS011;36212;48.838;9.142;2023-07-20T00:28:45;2.67;;;2.47;;
2544;SDS011;36212;48.838;9.142;2023-07-20T00:31:20;2.67;;;2.47;;
2544;SDS011;36212;48.838;9.142;2023-07-20T00:33:52;3.00;;;2.40;;
2544;SDS011;36212;48.838;9.142;2023-07-20T00:36:24;3.00;;;2.77;;
2544;SDS011;36212;48.838;9.142;2023-07-20T00:38:56;2.47;;;2.27;;
2544;SDS011;36212;48.838;9.142;2023-07-20T00:41:28;2.60;;;2.40;;
2544;SDS011;36212;48.838;9.142;2023-07-20T00:44:02;2.23;;;2.03;;
2544;SDS011;36212;48.838;9.142;2023-07-20T00:46:36;2.70;;;2.50;;
2544;SDS011;36212;48.838;9.142;2023-07-20T00:49:09;2.90;;;2.60;;
2544;SDS011;36212;48.838;9.142;2023-07-20T00:51:41;2.50;;;2.30;;
2544;SDS011;36212;48.838;9.142;2023-07-20T00:54:14;3.03;;;2.83;;
2544;SDS011;36212;48.838;9.142;2023-07-20T00:56:46;2.30;;;2.20;;
2544;SDS011;36212;48.838;9.142;2023-07-20T00:59:19;4.23;;;2.20;;
2544;SDS011;36212;48.838;9.142;2023-07-20T01:01:51;3.00;;;2.80;;
2544;SDS011;36212;48.838;9.142;2023-07-20T01:04:23;2.63;;;2.43;;
2544;SDS011;36212;48.838;9.142;2023-07-20T01:09:52;2.43;;;2.33;;
2544;SDS011;36212;48.838;9.142;2023-07-20T01:12:54;3.67;;;2.40;;
2544;SDS011;36212;48.838;9.142;2023-07-20T01:15:28;3.07;;;2.83;;
2544;SDS011;36212;48.838;9.142;2023-07-20T01:18:01;3.13;;;2.50;;
2544;SDS011;36212;48.838;9.142;2023-07-20T01:20:35;4.37;;;2.40;;
2544;SDS011;36212;48.838;9.142;2023-07-20T01:23:20;2.77;;;2.57;;
2544;SDS011;36212;48.838;9.142;2023-07-20T01:26:37;2.90;;;2.70;;
2544;SDS011;36212;48.838;9.142;2023-07-20T01:32:45;8.17;;;2.83;;
2544;SDS011;36212;48.838;9.142;2023-07-20T01:35:20;2.30;;;2.20;;
2544;SDS011;36212;48.838;9.142;2023-07-20T01:37:59;2.83;;;2.60;;
2544;SDS011;36212;48.838;9.142;2023-07-20T01:40:32;3.47;;;2.67;;
2544;SDS011;36212;48.838;9.142;2023-07-20T01:43:04;3.40;;;2.43;;
2544;SDS011;36212;48.838;9.142;2023-07-20T01:45:37;3.17;;;2.87;;
2544;SDS011;36212;48.838;9.142;2023-07-20T01:48:09;2.90;;;2.70;;
2544;SDS011;36212;48.838;9.142;2023-07-20T01:50:42;2.80;;;2.60;;
2544;SDS011;36212;48.838;9.142;2023-07-20T01:53:14;2.20;;;2.10;;
2544;SDS011;36212;48.838;9.142;2023-07-20T01:55:47;3.73;;;2.43;;
2544;SDS011;36212;48.838;9.142;2023-07-20T01:58:22;4.70;;;2.90;;
2544;SDS011;36212;48.838;9.142;2023-07-20T02:00:55;4.20;;;2.70;;
2544;SDS011;36212;48.838;9.142;2023-07-20T02:03:27;3.00;;;2.67;;
2544;SDS011;36212;48.838;9.142;2023-07-20T02:05:59;2.80;;;2.60;;
2544;SDS011;36212;48.838;9.142;2023-07-20T02:08:32;4.77;;;2.80;;
2544;SDS011;36212;48.838;9.142;2023-07-20T02:11:04;6.37;;;3.13;;
2544;SDS011;36212;48.838;9.142;2023-07-20T02:13:36;2.10;;;2.00;;
2544;SDS011;36212;48.838;9.142;2023-07-20T02:16:09;2.80;;;2.40;;
2544;SDS011;36212;48.838;9.142;2023-07-20T02:18:42;2.90;;;2.70;;
2544;SDS011;36212;48.838;9.142;2023-07-20T02:21:14;3.80;;;2.67;;
2544;SDS011;36212;48.838;9.142;2023-07-20T02:23:47;2.90;;;2.70;;
2544;SDS011;36212;48.838;9.142;2023-07-20T02:26:19;2.53;;;2.33;;
2544;SDS011;36212;48.838;9.142;2023-07-20T02:28:51;3.60;;;2.70;;
2544;SDS011;36212;48.838;9.142;2023-07-20T02:31:23;3.40;;;2.93;;
2544;SDS011;36212;48.838;9.142;2023-07-20T02:33:55;5.40;;;2.83;;
2544;SDS011;36212;48.838;9.142;2023-07-20T02:36:27;2.80;;;2.60;;
2544;SDS011;36212;48.838;9.142;2023-07-20T02:38:59;2.60;;;2.50;;
2544;SDS011;36212;48.838;9.142;2023-07-20T02:41:34;4.90;;;3.07;;
2544;SDS011;36212;48.838;9.142;2023-07-20T02:44:06;3.53;;;2.77;;
2544;SDS011;36212;48.838;9.142;2023-07-20T02:46:38;3.23;;;3.00;;
2544;SDS011;36212;48.838;9.142;2023-07-20T02:49:10;2.90;;;2.60;;
2544;SDS011;36212;48.838;9.142;2023-07-20T02:51:43;2.70;;;2.50;;
2544;SDS011;36212;48.838;9.142;2023-07-20T02:54:16;3.37;;;3.00;;
2544;SDS011;36212;48.838;9.142;2023-07-20T02:56:48;3.30;;;2.80;;
2544;SDS011;36212;48.838;9.142;2023-07-20T02:59:21;5.00;;;2.80;;
2544;SDS011;36212;48.838;9.142;2023-07-20T03:01:53;2.70;;;2.50;;
2544;SDS011;36212;48.838;9.142;2023-07-20T03:04:26;3.03;;;2.77;;
2544;SDS011;36212;48.838;9.142;2023-07-20T03:06:58;3.20;;;3.00;;
2544;SDS011;36212;48.838;9.142;2023-07-20T03:09:31;2.80;;;2.60;;
2544;SDS011;36212;48.838;9.142;2023-07-20T03:12:03;2.73;;;2.53;;
2544;SDS011;36212;48.838;9.142;2023-07-20T03:14:37;4.90;;;2.70;;
2544;SDS011;36212;48.838;9.142;2023-07-20T03:17:09;2.97;;;2.77;;
2544;SDS011;36212;48.838;9.142;2023-07-20T03:19:41;3.07;;;2.43;;
2544;SDS011;36212;48.838;9.142;2023-07-20T03:22:14;2.97;;;2.73;;
2544;SDS011;36212;48.838;9.142;2023-07-20T03:24:46;2.70;;;2.50;;
2544;SDS011;36212;48.838;9.142;2023-07-20T03:27:18;3.10;;;2.90;;
2544;SDS011;36212;48.838;9.142;2023-07-20T03:29:51;2.97;;;2.77;;
2544;SDS011;36212;48.838;9.142;2023-07-20T03:32:23;2.90;;;2.70;;
2544;SDS011;36212;48.838;9.142;2023-07-20T03:34:55;2.80;;;2.60;;
2544;SDS011;36212;48.838;9.142;2023-07-20T03:37:27;3.00;;;2.80;;
2544;SDS011;36212;48.838;9.142;2023-07-20T03:39:59;3.47;;;3.17;;
2544;SDS011;36212;48.838;9.142;2023-07-20T03:42:32;3.30;;;3.10;;
2544;SDS011;36212;48.838;9.142;2023-07-20T03:45:05;2.70;;;2.50;;
2544;SDS011;36212;48.838;9.142;2023-07-20T03:47:38;3.20;;;2.67;;
2544;SDS011;36212;48.838;9.142;2023-07-20T03:50:10;3.43;;;2.67;;
2544;SDS011;36212;48.838;9.142;2023-07-20T03:52:42;3.03;;;2.80;;
2544;SDS011;36212;48.838;9.142;2023-07-20T03:55:14;3.70;;;2.90;;
2544;SDS011;36212;48.838;9.142;2023-07-20T03:57:46;2.67;;;2.47;;
2544;SDS011;36212;48.838;9.142;2023-07-20T04:00:22;4.60;;;2.70;;
2544;SDS011;36212;48.838;9.142;2023-07-20T04:02:55;3.60;;;2.50;;
2544;SDS011;36212;48.838;9.142;2023-07-20T04:05:27;3.10;;;2.90;;
2544;SDS011;36212;48.838;9.142;2023-07-20T04:07:59;2.80;;;2.60;;
2544;SDS011;36212;48.838;9.142;2023-07-20T04:10:31;7.17;;;3.20;;
2544;SDS011;36212;48.838;9.142;2023-07-20T04:13:04;3.10;;;2.90;;
2544;SDS011;36212;48.838;9.142;2023-07-20T04:15:37;3.23;;;3.03;;
2544;SDS011;36212;48.838;9.142;2023-07-20T04:18:09;3.00;;;2.80;;
2544;SDS011;36212;48.838;9.142;2023-07-20T04:20:41;3.50;;;3.23;;
2544;SDS011;36212;48.838;9.142;2023-07-20T04:23:14;5.20;;;2.60;;
2544;SDS011;36212;48.838;9.142;2023-07-20T04:25:46;3.00;;;2.70;;
2544;SDS011;36212;48.838;9.142;2023-07-20T04:28:18;2.63;;;2.43;;
2544;SDS011;36212;48.838;9.142;2023-07-20T04:30:52;2.67;;;2.47;;
2544;SDS011;36212;48.838;9.142;2023-07-20T04:33:24;3.07;;;2.87;;
2544;SDS011;36212;48.838;9.142;2023-07-20T04:36:00;3.30;;;2.73;;
2544;SDS011;36212;48.838;9.142;2023-07-20T04:38:33;3.10;;;2.90;;
2544;SDS011;36212;48.838;9.142;2023-07-20T04:41:05;2.63;;;2.53;;
2544;SDS011;36212;48.838;9.142;2023-07-20T04:43:40;2.73;;;2.53;;
2544;SDS011;36212;48.838;9.142;2023-07-20T04:46:16;3.50;;;3.20;;
2544;SDS011;36212;48.838;9.142;2023-07-20T04:48:51;4.93;;;2.90;;
2544;SDS011;36212;48.838;9.142;2023-07-20T04:51:23;3.47;;;2.70;;
2544;SDS011;36212;48.838;9.142;2023-07-20T04:53:55;5.33;;;2.97;;
2544;SDS011;36212;48.838;9.142;2023-07-20T04:56:28;2.80;;;2.60;;
2544;SDS011;36212;48.838;9.142;2023-07-20T04:59:00;4.07;;;3.13;;
2544;SDS011;36212;48.838;9.142;2023-07-20T05:01:32;3.60;;;3.33;;
2544;SDS011;36212;48.838;9.142;2023-07-20T05:04:04;3.20;;;2.90;;
2544;SDS011;36212;48.838;9.142;2023-07-20T05:06:39;4.33;;;2.70;;
2544;SDS011;36212;48.838;9.142;2023-07-20T05:09:11;3.07;;;2.77;;
2544;SDS011;36212;48.838;9.142;2023-07-20T05:11:44;3.00;;;2.70;;
2544;SDS011;36212;48.838;9.142;2023-07-20T05:14:18;2.93;;;2.63;;
2544;SDS011;36212;48.838;9.142;2023-07-20T05:16:50;5.97;;;2.80;;
2544;SDS011;36212;48.838;9.142;2023-07-20T05:19:24;3.77;;;2.67;;
2544;SDS011;36212;48.838;9.142;2023-07-20T05:21:57;6.57;;;2.90;;
2544;SDS011;36212;48.838;9.142;2023-07-20T05:24:29;2.53;;;2.43;;
2544;SDS011;36212;48.838;9.142;2023-07-20T05:27:01;3.23;;;3.03;;
2544;SDS011;36212;48.838;9.142;2023-07-20T05:29:34;3.10;;;2.90;;
2544;SDS011;36212;48.838;9.142;2023-07-20T05:32:06;3.00;;;2.80;;
2544;SDS011;36212;48.838;9.142;2023-07-20T05:34:39;2.80;;;2.60;;
2544;SDS011;36212;48.838;9.142;2023-07-20T05:37:11;2.87;;;2.67;;
2544;SDS011;36212;48.838;9.142;2023-07-20T05:39:46;2.93;;;2.73;;
2544;SDS011;36212;48.838;9.142;2023-07-20T05:42:18;3.27;;;3.00;;
2544;SDS011;36212;48.838;9.142;2023-07-20T05:44:50;2.77;;;2.57;;
2544;SDS011;36212;48.838;9.142;2023-07-20T05:47:25;3.83;;;2.90;;
2544;SDS011;36212;48.838;9.142;2023-07-20T05:49:57;4.43;;;2.77;;
2544;SDS011;36212;48.838;9.142;2023-07-20T05:52:29;2.93;;;2.50;;
2544;SDS011;36212;48.838;9.142;2023-07-20T05:55:02;3.13;;;2.77;;
2544;SDS011;36212;48.838;9.142;2023-07-20T05:57:36;2.87;;;2.53;;
2544;SDS011;36212;48.838;9.142;2023-07-20T06:00:13;2.87;;;2.63;;
2544;SDS011;36212;48.838;9.142;2023-07-20T06:02:57;3.83;;;2.67;;
2544;SDS011;36212;48.838;9.142;2023-07-20T06:05:29;3.47;;;2.57;;
2544;SDS011;36212;48.838;9.142;2023-07-20T06:08:02;2.40;;;2.30;;
2544;SDS011;36212;48.838;9.142;2023-07-20T06:10:34;5.27;;;3.13;;
2544;SDS011;36212;48.838;9.142;2023-07-20T06:13:06;2.53;;;2.33;;
2544;SDS011;36212;48.838;9.142;2023-07-20T06:15:38;2.40;;;2.20;;
2544;SDS011;36212;48.838;9.142;2023-07-20T06:18:13;2.83;;;2.40;;
2544;SDS011;36212;48.838;9.142;2023-07-20T06:20:48;4.23;;;2.70;;
2544;SDS011;36212;48.838;9.142;2023-07-20T06:23:21;2.40;;;2.20;;
2544;SDS011;36212;48.838;9.142;2023-07-20T06:25:54;2.27;;;2.07;;
2544;SDS011;36212;48.838;9.142;2023-07-20T06:28:26;3.30;;;2.20;;
2544;SDS011;36212;48.838;9.142;2023-07-20T06:31:01;3.20;;;2.47;;
2544;SDS011;36212;48.838;9.142;2023-07-20T06:33:34;2.30;;;2.20;;
2544;SDS011;36212;48.838;9.142;2023-07-20T06:36:06;3.23;;;2.20;;
2544;SDS011;36212;48.838;9.142;2023-07-20T06:38:39;2.37;;;2.10;;
2544;SDS011;36212;48.838;9.142;2023-07-20T06:41:12;4.30;;;2.10;;
2544;SDS011;36212;48.838;9.142;2023-07-20T06:43:47;2.57;;;2.40;;
2544;SDS011;36212;48.838;9.142;2023-07-20T06:46:20;5.17;;;2.13;;
2544;SDS011;36212;48.838;9.142;2023-07-20T06:48:53;3.83;;;2.23;;
2544;SDS011;36212;48.838;9.142;2023-07-20T06:51:28;3.80;;;2.13;;
2544;SDS011;36212;48.838;9.142;2023-07-20T06:54:00;2.80;;;2.17;;
2544;SDS011;36212;48.838;9.142;2023-07-20T06:56:34;2.63;;;2.00;;
2544;SDS011;36212;48.838;9.142;2023-07-20T06:59:08;6.87;;;2.40;;
2544;SDS011;36212;48.838;9.142;2023-07-20T07:01:40;3.47;;;1.97;;
2544;SDS011;36212;48.838;9.142;2023-07-20T07:04:12;5.43;;;2.23;;
2544;SDS011;36212;48.838;9.142;2023-07-20T07:06:45;3.80;;;2.27;;
2544;SDS011;36212;48.838;9.142;2023-07-20T07:09:17;3.43;;;2.10;;
2544;SDS011;36212;48.838;9.142;2023-07-20T07:11:50;2.07;;;1.97;;
2544;SDS011;36212;48.838;9.142;2023-07-20T07:14:24;2.43;;;2.00;;
2544;SDS011;36212;48.838;9.142;2023-07-20T07:16:59;2.37;;;1.90;;
2544;SDS011;36212;48.838;9.142;2023-07-20T07:19:36;2.37;;;2.17;;
2544;SDS011;36212;48.838;9.142;2023-07-20T07:22:10;1.93;;;1.83;;
2544;SDS011;36212;48.838;9.142;2023-07-20T07:24:44;2.10;;;1.90;;
2544;SDS011;36212;48.838;9.142;2023-07-20T07:27:16;2.53;;;2.33;;
2544;SDS011;36212;48.838;9.142;2023-07-20T07:29:48;2.13;;;2.00;;
2544;SDS011;36212;48.838;9.142;2023-07-20T07:32:20;2.20;;;2.10;;
2544;SDS011;36212;48.838;9.142;2023-07-20T07:34:54;2.53;;;2.33;;
2544;SDS011;36212;48.838;9.142;2023-07-20T07:37:28;2.50;;;2.40;;
2544;SDS011;36212;48.838;9.142;2023-07-20T07:40:07;2.50;;;2.30;;
2544;SDS011;36212;48.838;9.142;2023-07-20T07:42:41;2.13;;;1.93;;
2544;SDS011;36212;48.838;9.142;2023-07-20T07:45:13;3.40;;;2.03;;
2544;SDS011;36212;48.838;9.142;2023-07-20T07:47:46;4.60;;;2.13;;
2544;SDS011;36212;48.838;9.142;2023-07-20T07:50:19;4.20;;;1.90;;
2544;SDS011;36212;48.838;9.142;2023-07-20T07:52:51;2.70;;;2.50;;
2544;SDS011;36212;48.838;9.142;2023-07-20T07:55:23;2.60;;;2.40;;
2544;SDS011;36212;48.838;9.142;2023-07-20T07:57:56;3.13;;;2.13;;
2544;SDS011;36212;48.838;9.142;2023-07-20T08:00:28;3.13;;;2.60;;
2544;SDS011;36212;48.838;9.142;2023-07-20T08:03:01;6.20;;;2.63;;
2544;SDS011;36212;48.838;9.142;2023-07-20T08:05:35;2.33;;;2.13;;
2544;SDS011;36212;48.838;9.142;2023-07-20T08:08:08;4.13;;;2.33;;
2544;SDS011;36212;48.838;9.142;2023-07-20T08:10:41;2.43;;;2.23;;
2544;SDS011;36212;48.838;9.142;2023-07-20T08:13:13;2.50;;;2.30;;
2544;SDS011;36212;48.838;9.142;2023-07-20T08:15:48;3.10;;;2.30;;
2544;SDS011;36212;48.838;9.142;2023-07-20T08:18:24;2.60;;;2.23;;
2544;SDS011;36212;48.838;9.142;2023-07-20T08:20:56;3.60;;;3.30;;
2544;SDS011;36212;48.838;9.142;2023-07-20T08:23:28;3.57;;;2.43;;
2544;SDS011;36212;48.838;9.142;2023-07-20T08:26:01;5.70;;;3.07;;
2544;SDS011;36212;48.838;9.142;2023-07-20T08:28:33;2.30;;;2.20;;
2544;SDS011;36212;48.838;9.142;2023-07-20T08:31:05;3.50;;;2.50;;
2544;SDS011;36212;48.838;9.142;2023-07-20T08:33:39;2.60;;;2.40;;
2544;SDS011;36212;48.838;9.142;2023-07-20T08:36:11;2.27;;;2.00;;
2544;SDS011;36212;48.838;9.142;2023-07-20T08:38:44;2.00;;;1.83;;
2544;SDS011;36212;48.838;9.142;2023-07-20T08:41:16;2.40;;;2.20;;
2544;SDS011;36212;48.838;9.142;2023-07-20T08:43:49;6.53;;;2.70;;
2544;SDS011;36212;48.838;9.142;2023-07-20T08:46:24;3.20;;;2.53;;
2544;SDS011;36212;48.838;9.142;2023-07-20T08:48:59;2.80;;;2.03;;
2544;SDS011;36212;48.838;9.142;2023-07-20T08:51:36;2.80;;;2.50;;
2544;SDS011;36212;48.838;9.142;2023-07-20T08:54:10;2.70;;;2.50;;
2544;SDS011;36212;48.838;9.142;2023-07-20T08:56:46;3.13;;;2.13;;
2544;SDS011;36212;48.838;9.142;2023-07-20T08:59:19;4.00;;;2.33;;
2544;SDS011;36212;48.838;9.142;2023-07-20T09:01:53;2.47;;;2.27;;
2544;SDS011;36212;48.838;9.142;2023-07-20T09:04:28;2.27;;;2.07;;
2544;SDS011;36212;48.838;9.142;2023-07-20T09:07:01;2.17;;;2.07;;
2544;SDS011;36212;48.838;9.142;2023-07-20T09:09:35;2.90;;;2.07;;
2544;SDS011;36212;48.838;9.142;2023-07-20T09:12:14;2.43;;;2.23;;
2544;SDS011;36212;48.838;9.142;2023-07-20T09:14:48;4.73;;;2.07;;
2544;SDS011;36212;48.838;9.142;2023-07-20T09:17:21;2.63;;;2.47;;
2544;SDS011;36212;48.838;9.142;2023-07-20T09:19:58;2.43;;;2.33;;
2544;SDS011;36212;48.838;9.142;2023-07-20T09:22:37;2.57;;;2.37;;
2544;SDS011;36212;48.838;9.142;2023-07-20T09:25:13;3.07;;;2.80;;
2544;SDS011;36212;48.838;9.142;2023-07-20T09:27:48;1.80;;;1.70;;
2544;SDS011;36212;48.838;9.142;2023-07-20T09:30:25;2.97;;;2.67;;
2544;SDS011;36212;48.838;9.142;2023-07-20T09:33:02;2.17;;;1.97;;
2544;SDS011;36212;48.838;9.142;2023-07-20T09:35:35;2.90;;;1.80;;
2544;SDS011;36212;48.838;9.142;2023-07-20T09:38:13;2.60;;;2.40;;
2544;SDS011;36212;48.838;9.142;2023-07-20T09:40:50;4.60;;;2.40;;
2544;SDS011;36212;48.838;9.142;2023-07-20T09:43:31;2.63;;;1.80;;
2544;SDS011;36212;48.838;9.142;2023-07-20T09:46:05;2.30;;;1.70;;
2544;SDS011;36212;48.838;9.142;2023-07-20T09:48:38;3.20;;;1.87;;
2544;SDS011;36212;48.838;9.142;2023-07-20T09:51:31;2.20;;;2.00;;
2544;SDS011;36212;48.838;9.142;2023-07-20T09:54:04;2.03;;;1.83;;
2544;SDS011;36212;48.838;9.142;2023-07-20T09:56:37;2.17;;;2.00;;
2544;SDS011;36212;48.838;9.142;2023-07-20T09:59:10;1.70;;;1.60;;
2544;SDS011;36212;48.838;9.142;2023-07-20T10:01:43;2.30;;;1.70;;
2544;SDS011;36212;48.838;9.142;2023-07-20T10:04:17;1.80;;;1.60;;
2544;SDS011;36212;48.838;9.142;2023-07-20T10:06:53;1.80;;;1.70;;
2544;SDS011;36212;48.838;9.142;2023-07-20T10:09:29;1.80;;;1.70;;
2544;SDS011;36212;48.838;9.142;2023-07-20T10:12:06;2.10;;;1.93;;
2544;SDS011;36212;48.838;9.142;2023-07-20T10:14:54;2.07;;;1.60;;
2544;SDS011;36212;48.838;9.142;2023-07-20T10:20:56;2.20;;;1.63;;
2544;SDS011;36212;48.838;9.142;2023-07-20T10:23:35;2.27;;;1.70;;
2544;SDS011;36212;48.838;9.142;2023-07-20T10:26:09;2.10;;;1.90;;
2544;SDS011;36212;48.838;9.142;2023-07-20T10:28:41;2.60;;;1.80;;
2544;SDS011;36212;48.838;9.142;2023-07-20T10:31:14;2.27;;;2.10;;
2544;SDS011;36212;48.838;9.142;2023-07-20T10:33:49;2.10;;;1.90;;
2544;SDS011;36212;48.838;9.142;2023-07-20T10:36:26;1.97;;;1.87;;
2544;SDS011;36212;48.838;9.142;2023-07-20T10:39:02;1.73;;;1.63;;
2544;SDS011;36212;48.838;9.142;2023-07-20T10:41:35;1.77;;;1.50;;
2544;SDS011;36212;48.838;9.142;2023-07-20T10:44:11;3.67;;;1.90;;
2544;SDS011;36212;48.838;9.142;2023-07-20T10:46:49;2.63;;;1.60;;
2544;SDS011;36212;48.838;9.142;2023-07-20T10:49:28;2.17;;;1.60;;
2544;SDS011;36212;48.838;9.142;2023-07-20T10:52:04;2.13;;;1.73;;
2544;SDS011;36212;48.838;9.142;2023-07-20T10:54:46;1.60;;;1.50;;
2544;SDS011;36212;48.838;9.142;2023-07-20T10:57:30;2.13;;;1.93;;
2544;SDS011;36212;48.838;9.142;2023-07-20T11:00:10;2.77;;;1.97;;
2544;SDS011;36212;48.838;9.142;2023-07-20T11:02:49;1.50;;;1.40;;
2544;SDS011;36212;48.838;9.142;2023-07-20T11:05:32;2.90;;;1.90;;
2544;SDS011;36212;48.838;9.142;2023-07-20T11:08:12;1.60;;;1.50;;
2544;SDS011;36212;48.838;9.142;2023-07-20T11:11:28;1.83;;;1.73;;
2544;SDS011;36212;48.838;9.142;2023-07-20T11:14:07;1.80;;;1.70;;
2544;SDS011;36212;48.838;9.142;2023-07-20T11:16:51;4.10;;;1.90;;
2544;SDS011;36212;48.838;9.142;2023-07-20T11:19:25;2.90;;;2.00;;
2544;SDS011;36212;48.838;9.142;2023-07-20T11:22:01;1.50;;;1.40;;
2544;SDS011;36212;48.838;9.142;2023-07-20T11:24:40;2.53;;;1.80;;
2544;SDS011;36212;48.838;9.142;2023-07-20T11:27:12;1.70;;;1.60;;
2544;SDS011;36212;48.838;9.142;2023-07-20T11:29:45;2.13;;;1.63;;
2544;SDS011;36212;48.838;9.142;2023-07-20T11:32:20;1.60;;;1.40;;
2544;SDS011;36212;48.838;9.142;2023-07-20T11:34:54;1.47;;;1.30;;
2544;SDS011;36212;48.838;9.142;2023-07-20T11:37:26;1.73;;;1.53;;
2544;SDS011;36212;48.838;9.142;2023-07-20T11:39:58;1.53;;;1.43;;
2544;SDS011;36212;48.838;9.142;2023-07-20T11:42:32;2.23;;;1.43;;
2544;SDS011;36212;48.838;9.142;2023-07-20T11:45:08;2.57;;;1.57;;
2544;SDS011;36212;48.838;9.142;2023-07-20T11:47:41;1.63;;;1.47;;
2544;SDS011;36212;48.838;9.142;2023-07-20T11:50:16;1.80;;;1.70;;
2544;SDS011;36212;48.838;9.142;2023-07-20T11:52:48;2.97;;;1.90;;
2544;SDS011;36212;48.838;9.142;2023-07-20T11:55:21;1.97;;;1.77;;
2544;SDS011;36212;48.838;9.142;2023-07-20T11:58:03;1.60;;;1.50;;
2544;SDS011;36212;48.838;9.142;2023-07-20T12:00:38;1.80;;;1.57;;
2544;SDS011;36212;48.838;9.142;2023-07-20T12:03:14;2.80;;;1.67;;
2544;SDS011;36212;48.838;9.142;2023-07-20T12:05:46;1.70;;;1.60;;
2544;SDS011;36212;48.838;9.142;2023-07-20T12:08:41;5.93;;;2.07;;
2544;SDS011;36212;48.838;9.142;2023-07-20T12:11:14;1.60;;;1.50;;
2544;SDS011;36212;48.838;9.142;2023-07-20T12:14:08;1.60;;;1.50;;
2544;SDS011;36212;48.838;9.142;2023-07-20T12:16:52;1.63;;;1.53;;
2544;SDS011;36212;48.838;9.142;2023-07-20T12:19:26;2.43;;;1.60;;
2544;SDS011;36212;48.838;9.142;2023-07-20T12:21:58;3.20;;;1.90;;
2544;SDS011;36212;48.838;9.142;2023-07-20T12:24:31;2.40;;;1.40;;
2544;SDS011;36212;48.838;9.142;2023-07-20T12:27:03;2.37;;;1.80;;
2544;SDS011;36212;48.838;9.142;2023-07-20T12:29:36;2.40;;;2.20;;
2544;SDS011;36212;48.838;9.142;2023-07-20T12:32:08;2.13;;;1.50;;
2544;SDS011;36212;48.838;9.142;2023-07-20T12:34:41;1.40;;;1.30;;
2544;SDS011;36212;48.838;9.142;2023-07-20T12:37:13;1.63;;;1.47;;
2544;SDS011;36212;48.838;9.142;2023-07-20T12:39:48;2.37;;;1.90;;
2544;SDS011;36212;48.838;9.142;2023-07-20T12:42:20;1.70;;;1.60;;
2544;SDS011;36212;48.838;9.142;2023-07-20T12:44:52;1.60;;;1.50;;
2544;SDS011;36212;48.838;9.142;2023-07-20T12:47:25;2.20;;;1.70;;
2544;SDS011;36212;48.838;9.142;2023-07-20T12:49:57;1.97;;;1.77;;
2544;SDS011;36212;48.838;9.142;2023-07-20T12:52:29;1.60;;;1.50;;
2544;SDS011;36212;48.838;9.142;2023-07-20T12:55:06;1.67;;;1.57;;
2544;SDS011;36212;48.838;9.142;2023-07-20T12:57:40;2.67;;;1.90;;
2544;SDS011;36212;48.838;9.142;2023-07-20T13:00:13;1.80;;;1.70;;
2544;SDS011;36212;48.838;9.142;2023-07-20T13:02:47;1.93;;;1.70;;
2544;SDS011;36212;48.838;9.142;2023-07-20T13:05:21;1.63;;;1.53;;
2544;SDS011;36212;48.838;9.142;2023-07-20T13:08:13;1.87;;;1.43;;
2544;SDS011;36212;48.838;9.142;2023-07-20T13:10:49;4.70;;;1.70;;
2544;SDS011;36212;48.838;9.142;2023-07-20T13:13:23;1.60;;;1.50;;
2544;SDS011;36212;48.838;9.142;2023-07-20T13:15:55;2.80;;;1.77;;
2544;SDS011;36212;48.838;9.142;2023-07-20T13:18:27;1.70;;;1.60;;
2544;SDS011;36212;48.838;9.142;2023-07-20T13:20:59;1.73;;;1.60;;
2544;SDS011;36212;48.838;9.142;2023-07-20T13:23:32;1.77;;;1.67;;
2544;SDS011;36212;48.838;9.142;2023-07-20T13:26:05;14.10;;;2.17;;
2544;SDS011;36212;48.838;9.142;2023-07-20T13:28:38;2.63;;;1.53;;
2544;SDS011;36212;48.838;9.142;2023-07-20T13:31:10;2.00;;;1.90;;
2544;SDS011;36212;48.838;9.142;2023-07-20T13:33:47;2.00;;;1.80;;
2544;SDS011;36212;48.838;9.142;2023-07-20T13:36:23;2.27;;;1.50;;
2544;SDS011;36212;48.838;9.142;2023-07-20T13:38:56;1.70;;;1.60;;
2544;SDS011;36212;48.838;9.142;2023-07-20T13:41:30;2.10;;;1.90;;
2544;SDS011;36212;48.838;9.142;2023-07-20T13:44:04;1.63;;;1.53;;
2544;SDS011;36212;48.838;9.142;2023-07-20T13:46:37;1.90;;;1.80;;
2544;SDS011;36212;48.838;9.142;2023-07-20T13:49:13;2.90;;;1.90;;
2544;SDS011;36212;48.838;9.142;2023-07-20T13:51:53;1.50;;;1.40;;
2544;SDS011;36212;48.838;9.142;2023-07-20T13:54:28;5.60;;;1.80;;
2544;SDS011;36212;48.838;9.142;2023-07-20T13:57:01;1.70;;;1.60;;
2544;SDS011;36212;48.838;9.142;2023-07-20T13:59:34;2.07;;;1.90;;
2544;SDS011;36212;48.838;9.142;2023-07-20T14:02:06;1.60;;;1.50;;
2544;SDS011;36212;48.838;9.142;2023-07-20T14:04:44;1.53;;;1.40;;
2544;SDS011;36212;48.838;9.142;2023-07-20T14:07:18;2.70;;;2.20;;
2544;SDS011;36212;48.838;9.142;2023-07-20T14:09:52;1.90;;;1.80;;
2544;SDS011;36212;48.838;9.142;2023-07-20T14:12:27;1.70;;;1.50;;
2544;SDS011;36212;48.838;9.142;2023-07-20T14:15:00;1.57;;;1.47;;
2544;SDS011;36212;48.838;9.142;2023-07-20T14:17:34;1.77;;;1.67;;
2544;SDS011;36212;48.838;9.142;2023-07-20T14:20:09;1.60;;;1.50;;
2544;SDS011;36212;48.838;9.142;2023-07-20T14:22:44;3.37;;;1.50;;
2544;SDS011;36212;48.838;9.142;2023-07-20T14:25:17;1.83;;;1.53;;
2544;SDS011;36212;48.838;9.142;2023-07-20T14:27:51;1.40;;;1.30;;
2544;SDS011;36212;48.838;9.142;2023-07-20T14:30:23;1.60;;;1.50;;
2544;SDS011;36212;48.838;9.142;2023-07-20T14:32:55;1.90;;;1.80;;
2544;SDS011;36212;48.838;9.142;2023-07-20T14:35:28;1.73;;;1.60;;
2544;SDS011;36212;48.838;9.142;2023-07-20T14:38:00;2.07;;;1.77;;
2544;SDS011;36212;48.838;9.142;2023-07-20T14:40:33;2.67;;;2.20;;
2544;SDS011;36212;48.838;9.142;2023-07-20T14:43:05;1.77;;;1.33;;
2544;SDS011;36212;48.838;9.142;2023-07-20T14:45:37;3.57;;;1.63;;
2544;SDS011;36212;48.838;9.142;2023-07-20T14:48:11;2.83;;;2.37;;
2544;SDS011;36212;48.838;9.142;2023-07-20T14:50:43;1.67;;;1.30;;
2544;SDS011;36212;48.838;9.142;2023-07-20T14:53:17;3.57;;;1.47;;
2544;SDS011;36212;48.838;9.142;2023-07-20T14:55:50;1.60;;;1.50;;
2544;SDS011;36212;48.838;9.142;2023-07-20T14:58:22;1.43;;;1.33;;
2544;SDS011;36212;48.838;9.142;2023-07-20T15:00:54;1.70;;;1.60;;
2544;SDS011;36212;48.838;9.142;2023-07-20T15:03:27;1.50;;;1.40;;
2544;SDS011;36212;48.838;9.142;2023-07-20T15:06:01;5.43;;;1.80;;
2544;SDS011;36212;48.838;9.142;2023-07-20T15:08:34;2.20;;;1.40;;
2544;SDS011;36212;48.838;9.142;2023-07-20T15:11:05;2.50;;;1.50;;
2544;SDS011;36212;48.838;9.142;2023-07-20T15:13:38;1.70;;;1.60;;
2544;SDS011;36212;48.838;9.142;2023-07-20T15:16:13;1.97;;;1.87;;
2544;SDS011;36212;48.838;9.142;2023-07-20T15:18:45;1.93;;;1.47;;
2544;SDS011;36212;48.838;9.142;2023-07-20T15:21:19;2.13;;;1.60;;
2544;SDS011;36212;48.838;9.142;2023-07-20T15:23:53;2.10;;;1.60;;
2544;SDS011;36212;48.838;9.142;2023-07-20T15:26:25;1.73;;;1.50;;
2544;SDS011;36212;48.838;9.142;2023-07-20T15:28:57;1.93;;;1.70;;
2544;SDS011;36212;48.838;9.142;2023-07-20T15:31:29;1.80;;;1.70;;
2544;SDS011;36212;48.838;9.142;2023-07-20T15:34:06;1.67;;;1.57;;
2544;SDS011;36212;48.838;9.142;2023-07-20T15:36:38;1.47;;;1.37;;
2544;SDS011;36212;48.838;9.142;2023-07-20T15:39:11;1.63;;;1.30;;
2544;SDS011;36212;48.838;9.142;2023-07-20T15:41:44;2.30;;;1.60;;
2544;SDS011;36212;48.838;9.142;2023-07-20T15:44:17;2.73;;;1.90;;
2544;SDS011;36212;48.838;9.142;2023-07-20T15:46:50;1.80;;;1.70;;
2544;SDS011;36212;48.838;9.142;2023-07-20T15:49:22;4.57;;;2.13;;
2544;SDS011;36212;48.838;9.142;2023-07-20T15:51:57;1.70;;;1.47;;